createdAt,value
2018-01-21T00:02:00.398Z,94.10
2018-01-21T00:04:27.952Z,94.20
2018-01-21T00:06:56.219Z,94.20
2018-01-21T00:09:24.516Z,94.20
2018-01-21T00:11:52.781Z,94.10
2018-01-21T00:14:20.327Z,94.10
2018-01-21T00:16:47.817Z,94.10
2018-01-21T00:19:15.343Z,94.10
2018-01-21T00:21:42.873Z,94.10
2018-01-21T00:24:10.403Z,94.10
2018-01-21T00:26:37.927Z,94.20
2018-01-21T00:29:06.175Z,94.10
2018-01-21T00:31:33.668Z,94.10
2018-01-21T00:34:01.980Z,94.20
2018-01-21T00:36:29.495Z,94.10
2018-01-21T00:38:57.744Z,94.30
2018-01-21T00:41:25.307Z,94.20
2018-01-21T00:43:52.804Z,94.20
2018-01-21T00:46:20.344Z,94.20
2018-01-21T00:48:48.635Z,94.30
2018-01-21T00:51:16.308Z,94.30
2018-01-21T00:53:43.795Z,94.20
2018-01-21T00:56:11.381Z,94.20
2018-01-21T00:58:38.847Z,94.10
2018-01-21T01:01:07.096Z,94.10
2018-01-21T01:03:34.700Z,94.10
2018-01-21T01:06:02.220Z,94.10
2018-01-21T01:08:30.047Z,94.00
2018-01-21T01:10:57.556Z,94.10
2018-01-21T01:13:25.087Z,94.00
2018-01-21T01:15:52.607Z,94.10
2018-01-21T01:18:20.113Z,94.20
2018-01-21T01:20:47.648Z,94.20
2018-01-21T01:23:15.163Z,94.10
2018-01-21T01:25:42.683Z,94.10
2018-01-21T01:28:10.918Z,94.10
2018-01-21T01:30:38.440Z,94.10
2018-01-21T01:33:06.735Z,94.10
2018-01-21T01:35:34.267Z,94.10
2018-01-21T01:38:02.581Z,94.20
2018-01-21T01:40:30.103Z,94.20
2018-01-21T01:42:58.408Z,94.10
2018-01-21T01:45:25.929Z,94.10
2018-01-21T01:47:53.467Z,94.10
2018-01-21T01:50:20.988Z,94.20
2018-01-21T01:52:48.544Z,94.10
2018-01-21T01:55:16.027Z,94.20
2018-01-21T01:57:43.547Z,94.20
2018-01-21T02:00:11.107Z,94.20
2018-01-21T02:02:39.560Z,94.20
2018-01-21T02:05:07.100Z,94.20
2018-01-21T02:07:34.639Z,94.30
2018-01-21T02:10:02.172Z,94.20
2018-01-21T02:12:29.674Z,94.10
2018-01-21T02:14:57.215Z,94.10
2018-01-21T02:17:24.683Z,94.20
2018-01-21T02:19:52.162Z,94.10
2018-01-21T02:22:20.434Z,93.90
2018-01-21T02:24:47.970Z,94.00
2018-01-21T02:27:15.467Z,94.20
2018-01-21T02:29:43.755Z,94.00
2018-01-21T02:32:11.274Z,94.00
2018-01-21T02:34:38.817Z,94.00
2018-01-21T02:37:06.360Z,94.10
2018-01-21T02:39:33.907Z,94.10
2018-01-21T02:42:01.423Z,94.20
2018-01-21T02:44:28.955Z,94.30
2018-01-21T02:46:56.489Z,94.30
2018-01-21T02:49:24.020Z,94.30
2018-01-21T02:51:51.468Z,94.40
2018-01-21T02:54:19.017Z,94.30
2018-01-21T02:56:47.316Z,94.30
2018-01-21T02:59:14.844Z,94.30
2018-01-21T03:01:42.409Z,94.30
2018-01-21T03:04:09.888Z,94.30
2018-01-21T03:06:37.531Z,94.20
2018-01-21T03:09:05.839Z,94.30
2018-01-21T03:11:34.015Z,94.20
2018-01-21T03:14:01.542Z,94.30
2018-01-21T03:16:29.061Z,94.20
2018-01-21T03:18:56.599Z,94.30
2018-01-21T03:21:24.125Z,94.20
2018-01-21T03:23:51.660Z,94.10
2018-01-21T03:26:19.907Z,94.00
2018-01-21T03:28:47.427Z,94.00
2018-01-21T03:31:14.971Z,94.10
2018-01-21T03:33:43.297Z,94.10
2018-01-21T03:36:10.841Z,94.10
2018-01-21T03:38:38.367Z,94.10
2018-01-21T03:41:05.888Z,94.10
2018-01-21T03:43:33.431Z,94.00
2018-01-21T03:46:00.985Z,94.00
2018-01-21T03:48:29.107Z,94.00
2018-01-21T03:50:57.426Z,93.90
2018-01-21T03:53:24.942Z,93.90
2018-01-21T03:55:53.288Z,94.00
2018-01-21T03:58:20.743Z,93.90
2018-01-21T04:00:48.308Z,94.00
2018-01-21T04:03:15.847Z,93.90
2018-01-21T04:05:43.374Z,93.80
2018-01-21T04:08:10.895Z,93.80
2018-01-21T04:10:39.165Z,93.50
2018-01-21T04:13:06.688Z,93.50
2018-01-21T04:15:34.199Z,93.40
2018-01-21T04:18:02.490Z,93.40
2018-01-21T04:20:29.988Z,93.40
2018-01-21T04:22:57.476Z,93.40
2018-01-21T04:25:25.028Z,93.30
2018-01-21T04:27:52.531Z,93.30
2018-01-21T04:30:20.081Z,93.20
2018-01-21T04:32:47.615Z,92.90
2018-01-21T04:35:15.220Z,92.80
2018-01-21T04:37:43.520Z,92.40
2018-01-21T04:40:11.032Z,92.40
2018-01-21T04:42:38.560Z,92.40
2018-01-21T04:45:06.842Z,92.20
2018-01-21T04:47:34.380Z,92.20
2018-01-21T04:50:01.931Z,92.20
2018-01-21T04:52:29.472Z,91.90
2018-01-21T04:54:56.964Z,92.20
2018-01-21T04:57:24.443Z,92.00
2018-01-21T04:59:51.972Z,92.00
2018-01-21T05:02:19.511Z,91.90
2018-01-21T05:04:47.035Z,92.00
2018-01-21T05:07:14.854Z,91.90
2018-01-21T05:09:42.389Z,92.00
2018-01-21T05:12:10.083Z,91.60
2018-01-21T05:14:37.559Z,91.90
2018-01-21T05:17:05.079Z,92.00
2018-01-21T05:19:32.784Z,92.30
2018-01-21T05:22:00.355Z,92.40
2018-01-21T05:24:27.867Z,92.50
2018-01-21T05:26:55.395Z,92.20
2018-01-21T05:29:22.908Z,92.30
2018-01-21T05:31:51.189Z,92.10
2018-01-21T05:34:18.728Z,92.20
2018-01-21T05:36:46.228Z,92.20
2018-01-21T05:39:13.711Z,92.00
2018-01-21T05:41:41.256Z,92.00
2018-01-21T05:44:08.880Z,92.20
2018-01-21T05:46:36.420Z,92.00
2018-01-21T05:49:03.986Z,91.90
2018-01-21T05:51:31.527Z,92.00
2018-01-21T05:53:59.809Z,91.70
2018-01-21T05:56:28.101Z,91.90
2018-01-21T05:58:56.396Z,91.90
2018-01-21T06:01:23.923Z,91.80
2018-01-21T06:03:52.922Z,92.00
2018-01-21T06:06:21.242Z,92.00
2018-01-21T06:08:48.763Z,92.00
2018-01-21T06:11:16.308Z,91.70
2018-01-21T06:13:44.559Z,91.70
2018-01-21T06:16:12.091Z,91.60
2018-01-21T06:18:39.576Z,91.70
2018-01-21T06:21:07.099Z,91.70
2018-01-21T06:23:34.627Z,91.60
2018-01-21T06:26:02.154Z,91.60
2018-01-21T06:28:29.647Z,91.40
2018-01-21T06:30:57.179Z,91.30
2018-01-21T06:33:24.729Z,91.50
2018-01-21T06:35:52.273Z,91.40
2018-01-21T06:38:20.717Z,91.60
2018-01-21T06:40:48.232Z,91.60
2018-01-21T06:43:15.821Z,91.70
2018-01-21T06:45:43.339Z,91.40
2018-01-21T06:48:10.875Z,91.30
2018-01-21T06:50:38.412Z,90.90
2018-01-21T06:53:05.916Z,91.00
2018-01-21T06:55:34.203Z,90.90
2018-01-21T06:58:01.749Z,90.90
2018-01-21T07:00:30.036Z,91.10
2018-01-21T07:02:57.562Z,91.00
2018-01-21T07:05:25.109Z,90.80
2018-01-21T07:07:52.639Z,90.80
2018-01-21T07:10:20.157Z,90.50
2018-01-21T07:12:47.821Z,90.10
2018-01-21T07:15:16.170Z,89.10
2018-01-21T07:17:43.711Z,89.10
2018-01-21T07:20:11.251Z,90.00
2018-01-21T07:22:38.809Z,90.00
2018-01-21T07:25:06.328Z,90.00
2018-01-21T07:27:33.871Z,89.70
2018-01-21T07:30:01.385Z,89.80
2018-01-21T07:32:28.915Z,89.90
2018-01-21T07:34:56.443Z,89.90
2018-01-21T07:37:23.987Z,89.50
2018-01-21T07:39:51.510Z,89.80
2018-01-21T07:42:19.014Z,90.10
2018-01-21T07:44:46.531Z,89.60
2018-01-21T07:47:14.059Z,89.60
2018-01-21T07:49:42.360Z,89.30
2018-01-21T07:52:09.972Z,89.60
2018-01-21T07:54:38.376Z,90.00
2018-01-21T07:57:05.860Z,90.20
2018-01-21T07:59:33.404Z,89.70
2018-01-21T08:02:00.935Z,90.20
2018-01-21T08:04:28.412Z,90.20
2018-01-21T08:07:02.432Z,90.40
2018-01-21T08:09:30.720Z,90.30
2018-01-21T08:11:58.248Z,90.30
2018-01-21T08:14:25.831Z,90.40
2018-01-21T08:16:54.131Z,90.00
2018-01-21T08:19:22.447Z,89.50
2018-01-21T08:21:49.932Z,89.40
2018-01-21T08:24:18.217Z,89.20
2018-01-21T08:26:45.748Z,89.10
2018-01-21T08:29:13.306Z,89.10
2018-01-21T08:31:40.853Z,89.60
2018-01-21T08:34:13.968Z,89.10
2018-01-21T08:36:47.987Z,89.40
2018-01-21T08:39:21.228Z,89.40
2018-01-21T08:41:48.767Z,89.70
2018-01-21T08:44:16.328Z,89.80
2018-01-21T08:46:43.872Z,89.70
2018-01-21T08:49:11.376Z,89.60
2018-01-21T08:51:38.882Z,88.90
2018-01-21T08:54:06.419Z,89.50
2018-01-21T08:56:33.898Z,89.30
2018-01-21T08:59:01.436Z,88.80
2018-01-21T09:01:29.691Z,88.50
2018-01-21T09:03:57.175Z,88.50
2018-01-21T09:06:25.468Z,87.80
2018-01-21T09:08:52.999Z,87.80
2018-01-21T09:11:20.545Z,87.80
2018-01-21T09:13:48.053Z,87.60
2018-01-21T09:16:15.610Z,87.40
2018-01-21T09:18:43.137Z,86.90
2018-01-21T09:21:10.711Z,86.30
2018-01-21T09:23:38.264Z,84.70
2018-01-21T09:26:05.879Z,85.90
2018-01-21T09:28:33.367Z,85.10
2018-01-21T09:31:01.693Z,83.80
2018-01-21T09:33:29.211Z,83.80
2018-01-21T09:35:56.736Z,85.30
2018-01-21T09:38:24.268Z,84.40
2018-01-21T09:40:51.799Z,84.40
2018-01-21T09:43:19.303Z,84.10
2018-01-21T09:45:46.872Z,82.50
2018-01-21T09:48:15.209Z,83.80
2018-01-21T09:50:42.736Z,83.90
2018-01-21T09:53:10.268Z,82.60
2018-01-21T09:55:37.789Z,81.50
2018-01-21T09:58:05.271Z,81.90
2018-01-21T10:00:32.791Z,80.00
2018-01-21T10:03:00.347Z,78.90
2018-01-21T10:05:27.874Z,77.30
2018-01-21T10:07:56.154Z,70.10
2018-01-21T10:10:24.464Z,66.70
2018-01-21T10:12:51.953Z,66.60
2018-01-21T10:15:19.458Z,63.40
2018-01-21T10:17:46.996Z,62.20
2018-01-21T10:20:15.269Z,58.50
2018-01-21T10:22:43.583Z,59.70
2018-01-21T10:25:11.110Z,59.70
2018-01-21T10:27:38.662Z,60.10
2018-01-21T10:30:06.911Z,59.50
2018-01-21T10:32:34.384Z,59.40
2018-01-21T10:35:02.652Z,59.20
2018-01-21T10:37:30.154Z,59.00
2018-01-21T10:39:57.684Z,60.00
2018-01-21T10:42:26.103Z,64.70
2018-01-21T10:44:53.574Z,64.70
2018-01-21T10:47:21.077Z,66.20
2018-01-21T10:49:48.479Z,68.00
2018-01-21T10:52:15.978Z,69.00
2018-01-21T10:54:43.379Z,70.40
2018-01-21T10:57:11.043Z,71.20
2018-01-21T10:59:38.500Z,70.90
2018-01-21T11:02:05.955Z,70.40
2018-01-21T11:04:33.479Z,67.20
2018-01-21T11:07:01.707Z,65.00
2018-01-21T11:09:31.166Z,65.00
2018-01-21T11:11:59.654Z,66.60
2018-01-21T11:14:27.200Z,66.60
2018-01-21T11:16:55.472Z,70.00
2018-01-21T11:19:22.980Z,70.00
2018-01-21T11:21:50.481Z,70.20
2018-01-21T11:24:18.815Z,70.90
2018-01-21T11:26:46.727Z,70.90
2018-01-21T11:29:15.013Z,71.30
2018-01-21T11:31:42.543Z,71.20
2018-01-21T11:34:10.085Z,71.80
2018-01-21T11:36:37.567Z,67.60
2018-01-21T11:39:06.574Z,64.40
2018-01-21T11:41:34.038Z,64.40
2018-01-21T11:44:01.823Z,64.80
2018-01-21T11:46:29.315Z,65.50
2018-01-21T11:48:57.019Z,66.00
2018-01-21T11:51:24.556Z,68.40
2018-01-21T11:53:52.121Z,70.30
2018-01-21T11:56:20.436Z,71.90
2018-01-21T11:58:48.025Z,72.00
2018-01-21T12:01:15.581Z,70.90
2018-01-21T12:03:43.119Z,69.60
2018-01-21T12:06:10.691Z,69.80
2018-01-21T12:08:38.252Z,69.60
2018-01-21T12:11:05.789Z,70.90
2018-01-21T12:13:33.365Z,72.70
2018-01-21T12:16:00.870Z,70.60
2018-01-21T12:18:28.380Z,70.80
2018-01-21T12:20:55.848Z,71.20
2018-01-21T12:23:23.409Z,71.10
2018-01-21T12:25:50.955Z,70.60
2018-01-21T12:28:18.552Z,68.80
2018-01-21T12:30:46.117Z,68.70
2018-01-21T12:33:16.555Z,69.40
2018-01-21T12:35:44.104Z,67.80
2018-01-21T12:38:12.427Z,68.50
2018-01-21T12:40:39.930Z,68.50
2018-01-21T12:43:08.256Z,69.40
2018-01-21T12:45:35.832Z,69.50
2018-01-21T12:48:03.338Z,69.50
2018-01-21T12:50:30.937Z,68.20
2018-01-21T12:52:58.488Z,68.80
2018-01-21T12:55:26.022Z,66.60
2018-01-21T12:57:53.491Z,66.40
2018-01-21T13:00:21.064Z,66.10
2018-01-21T13:02:48.641Z,67.90
2018-01-21T13:05:16.343Z,66.60
2018-01-21T13:07:43.914Z,66.80
2018-01-21T13:10:11.404Z,67.70
2018-01-21T13:12:38.868Z,68.10
2018-01-21T13:15:06.508Z,68.70
2018-01-21T13:17:34.290Z,68.00
2018-01-21T13:20:01.832Z,67.00
2018-01-21T13:22:29.345Z,66.80
2018-01-21T13:24:57.704Z,67.70
2018-01-21T13:27:25.210Z,67.80
2018-01-21T13:29:53.048Z,67.80
2018-01-21T13:32:20.564Z,66.80
2018-01-21T13:34:51.207Z,65.50
2018-01-21T13:37:18.786Z,65.30
2018-01-21T13:39:47.122Z,68.20
2018-01-21T13:42:14.795Z,68.40
2018-01-21T13:44:43.154Z,67.00
2018-01-21T13:47:10.744Z,67.70
2018-01-21T13:49:38.389Z,66.70
2018-01-21T13:52:05.968Z,70.30
2018-01-21T13:54:33.654Z,67.80
2018-01-21T13:57:01.185Z,68.90
2018-01-21T13:59:28.850Z,67.60
2018-01-21T14:01:56.477Z,70.60
2018-01-21T14:04:23.999Z,67.90
2018-01-21T14:06:51.495Z,68.10
2018-01-21T14:09:19.463Z,69.10
2018-01-21T14:11:47.036Z,69.20
2018-01-21T14:14:15.041Z,70.70
2018-01-21T14:16:42.636Z,68.30
2018-01-21T14:19:10.210Z,69.10
2018-01-21T14:21:38.571Z,68.10
2018-01-21T14:24:06.075Z,69.10
2018-01-21T14:26:34.417Z,66.80
2018-01-21T14:29:02.114Z,66.90
2018-01-21T14:31:29.688Z,67.30
2018-01-21T14:33:58.550Z,67.90
2018-01-21T14:36:26.139Z,66.30
2018-01-21T14:38:53.769Z,66.80
2018-01-21T14:41:21.273Z,66.60
2018-01-21T14:43:48.732Z,68.30
2018-01-21T14:46:16.259Z,67.10
2018-01-21T14:48:44.588Z,67.10
2018-01-21T14:51:12.509Z,67.10
2018-01-21T14:53:41.045Z,67.00
2018-01-21T14:56:08.698Z,67.00
2018-01-21T14:58:36.298Z,67.10
2018-01-21T15:01:03.993Z,66.50
2018-01-21T15:03:31.907Z,66.30
2018-01-21T15:05:59.452Z,65.50
2018-01-21T15:08:26.915Z,65.70
2018-01-21T15:10:54.436Z,65.10
2018-01-21T15:13:21.976Z,65.60
2018-01-21T15:15:50.273Z,67.30
2018-01-21T15:18:17.779Z,67.30
2018-01-21T15:20:45.320Z,67.50
2018-01-21T15:23:12.790Z,68.60
2018-01-21T15:25:40.300Z,67.70
2018-01-21T15:28:08.248Z,69.60
2018-01-21T15:30:36.560Z,68.60
2018-01-21T15:33:04.066Z,68.60
2018-01-21T15:35:31.532Z,68.90
2018-01-21T15:38:00.544Z,68.30
2018-01-21T15:40:27.990Z,68.20
2018-01-21T15:42:55.524Z,72.00
2018-01-21T15:45:23.078Z,70.20
2018-01-21T15:47:50.553Z,69.70
2018-01-21T15:50:18.906Z,70.70
2018-01-21T15:52:46.362Z,70.70
2018-01-21T15:55:13.867Z,71.00
2018-01-21T15:57:41.370Z,70.60
2018-01-21T16:00:08.897Z,70.30
2018-01-21T16:02:36.473Z,71.90
2018-01-21T16:05:03.963Z,70.90
2018-01-21T16:07:31.425Z,70.20
2018-01-21T16:09:58.910Z,69.70
2018-01-21T16:12:26.515Z,70.20
2018-01-21T16:14:54.013Z,69.00
2018-01-21T16:17:22.320Z,69.90
2018-01-21T16:19:49.787Z,69.90
2018-01-21T16:22:17.314Z,70.50
2018-01-21T16:24:44.811Z,70.50
2018-01-21T16:27:12.331Z,70.80
2018-01-21T16:29:40.571Z,71.60
2018-01-21T16:32:08.048Z,71.60
2018-01-21T16:34:35.519Z,71.40
2018-01-21T16:37:02.998Z,71.40
2018-01-21T16:39:30.516Z,73.30
2018-01-21T16:41:58.794Z,74.90
2018-01-21T16:44:26.341Z,74.90
2018-01-21T16:46:53.779Z,75.90
2018-01-21T16:49:21.379Z,74.50
2018-01-21T16:51:48.951Z,75.10
2018-01-21T16:54:16.477Z,75.80
2018-01-21T16:56:44.767Z,76.40
2018-01-21T16:59:12.268Z,76.40
2018-01-21T17:01:39.786Z,77.10
2018-01-21T17:04:07.353Z,77.00
2018-01-21T17:06:35.502Z,77.20
2018-01-21T17:09:03.255Z,77.80
2018-01-21T17:11:30.958Z,79.20
2018-01-21T17:13:58.516Z,78.70
2018-01-21T17:16:29.098Z,79.30
2018-01-21T17:18:56.684Z,79.70
2018-01-21T17:21:25.012Z,80.70
2018-01-21T17:23:52.573Z,80.70
2018-01-21T17:26:20.122Z,81.00
2018-01-21T17:28:47.638Z,81.00
2018-01-21T17:31:15.905Z,80.70
2018-01-21T17:33:44.135Z,81.20
2018-01-21T17:36:11.591Z,81.20
2018-01-21T17:38:39.063Z,81.60
2018-01-21T17:41:06.573Z,81.60
2018-01-21T17:43:34.026Z,81.80
2018-01-21T17:46:01.830Z,82.50
2018-01-21T17:48:29.280Z,83.40
2018-01-21T17:50:56.752Z,83.60
2018-01-21T17:53:24.202Z,83.50
2018-01-21T17:55:51.742Z,83.50
2018-01-21T17:58:19.251Z,84.00
2018-01-21T18:00:46.774Z,84.40
2018-01-21T18:03:14.283Z,84.10
2018-01-21T18:05:41.743Z,83.90
2018-01-21T18:08:09.203Z,83.70
2018-01-21T18:10:37.787Z,83.50
2018-01-21T18:13:05.375Z,83.20
2018-01-21T18:15:32.864Z,83.10
2018-01-21T18:18:00.423Z,83.50
2018-01-21T18:20:27.968Z,83.50
2018-01-21T18:22:55.457Z,83.30
2018-01-21T18:25:23.716Z,83.40
2018-01-21T18:27:51.299Z,83.30
2018-01-21T18:30:19.557Z,83.40
2018-01-21T18:32:47.115Z,83.40
2018-01-21T18:35:15.392Z,83.70
2018-01-21T18:37:42.907Z,83.70
2018-01-21T18:40:10.387Z,84.00
2018-01-21T18:42:37.887Z,84.20
2018-01-21T18:45:05.946Z,84.50
2018-01-21T18:47:34.293Z,85.00
2018-01-21T18:50:01.848Z,84.90
2018-01-21T18:52:29.454Z,85.20
2018-01-21T18:54:57.004Z,85.30
2018-01-21T18:57:24.609Z,85.50
2018-01-21T18:59:52.148Z,85.70
2018-01-21T19:02:19.659Z,85.60
2018-01-21T19:04:47.206Z,85.80
2018-01-21T19:07:14.883Z,86.00
2018-01-21T19:09:42.473Z,86.30
2018-01-21T19:12:09.991Z,86.30
2018-01-21T19:14:37.577Z,86.00
2018-01-21T19:17:05.119Z,86.30
2018-01-21T19:19:32.700Z,86.50
2018-01-21T19:22:01.211Z,86.40
2018-01-21T19:24:28.703Z,86.50
2018-01-21T19:26:56.220Z,87.00
2018-01-21T19:29:23.779Z,87.70
2018-01-21T19:31:51.335Z,88.30
2018-01-21T19:34:18.919Z,88.30
2018-01-21T19:36:46.518Z,88.50
2018-01-21T19:39:29.762Z,88.30
2018-01-21T19:42:07.325Z,88.10
2018-01-21T19:44:37.342Z,87.70
2018-01-21T19:47:06.557Z,86.50
2018-01-21T19:49:34.192Z,86.50
2018-01-21T19:52:01.758Z,85.80
2018-01-21T19:54:29.357Z,84.90
2018-01-21T19:56:56.859Z,83.50
2018-01-21T19:59:24.369Z,82.80
2018-01-21T20:01:51.954Z,85.00
2018-01-21T20:04:19.530Z,86.50
2018-01-21T20:06:47.106Z,87.50
2018-01-21T20:09:14.677Z,87.80
2018-01-21T20:11:43.038Z,87.90
2018-01-21T20:14:10.624Z,88.00
2018-01-21T20:16:38.195Z,87.90
2018-01-21T20:19:05.878Z,88.40
2018-01-21T20:21:33.453Z,88.40
2018-01-21T20:24:01.002Z,89.20
2018-01-21T20:26:28.670Z,89.40
2018-01-21T20:28:56.225Z,89.80
2018-01-21T20:31:23.829Z,90.00
2018-01-21T20:33:52.129Z,90.40
2018-01-21T20:36:19.631Z,90.40
2018-01-21T20:38:47.234Z,90.60
2018-01-21T20:41:15.547Z,90.70
2018-01-21T20:43:43.171Z,90.70
2018-01-21T20:46:11.547Z,90.70
2018-01-21T20:48:39.925Z,90.60
2018-01-21T20:51:13.222Z,90.50
2018-01-21T20:53:46.617Z,90.20
2018-01-21T20:56:18.802Z,89.60
2018-01-21T20:58:46.341Z,89.60
2018-01-21T21:01:13.870Z,90.00
2018-01-21T21:03:41.396Z,90.20
2018-01-21T21:06:09.022Z,90.30
2018-01-21T21:08:36.628Z,90.50
2018-01-21T21:11:04.215Z,90.50
2018-01-21T21:13:32.519Z,90.50
2018-01-21T21:16:00.044Z,90.50
2018-01-21T21:18:27.655Z,90.40
2018-01-21T21:20:55.363Z,89.40
2018-01-21T21:23:23.699Z,88.30
2018-01-21T21:25:51.259Z,88.20
2018-01-21T21:28:18.796Z,85.90
2018-01-21T21:30:46.338Z,86.50
2018-01-21T21:33:14.712Z,85.60
2018-01-21T21:35:42.310Z,85.40
2018-01-21T21:38:09.888Z,84.20
2018-01-21T21:40:37.468Z,82.90
2018-01-21T21:43:05.043Z,83.00
2018-01-21T21:45:33.401Z,82.20
2018-01-21T21:48:00.957Z,82.20
2018-01-21T21:50:28.489Z,82.30
2018-01-21T21:52:56.035Z,82.20
2018-01-21T21:55:24.183Z,83.50
2018-01-21T21:57:51.752Z,84.30
2018-01-21T22:00:19.371Z,85.00
2018-01-21T22:02:46.896Z,85.20
2018-01-21T22:05:14.366Z,85.60
2018-01-21T22:07:41.876Z,85.90
2018-01-21T22:10:09.466Z,86.10
2018-01-21T22:12:37.048Z,85.90
2018-01-21T22:15:04.651Z,85.00
2018-01-21T22:17:32.287Z,84.70
2018-01-21T22:19:59.841Z,84.30
2018-01-21T22:22:27.422Z,84.70
2018-01-21T22:24:55.724Z,83.50
2018-01-21T22:27:23.332Z,83.40
2018-01-21T22:29:50.803Z,83.20
2018-01-21T22:32:19.057Z,81.30
2018-01-21T22:34:47.379Z,80.90
2018-01-21T22:37:14.897Z,80.40
2018-01-21T22:39:42.477Z,80.90
2018-01-21T22:42:11.263Z,80.20
2018-01-21T22:44:38.832Z,81.20
2018-01-21T22:47:06.379Z,80.80
2018-01-21T22:49:34.657Z,80.20
2018-01-21T22:52:03.501Z,80.00
2018-01-21T22:54:31.061Z,80.00
2018-01-21T22:56:58.597Z,79.90
2018-01-21T22:59:26.091Z,80.30
2018-01-21T23:01:53.607Z,80.30
2018-01-21T23:04:21.125Z,79.90
2018-01-21T23:06:49.443Z,79.70
2018-01-21T23:09:16.971Z,79.70
2018-01-21T23:11:44.463Z,80.50
2018-01-21T23:14:11.935Z,79.50
2018-01-21T23:16:39.408Z,79.20
2018-01-21T23:19:06.868Z,79.90
2018-01-21T23:21:34.423Z,81.00
2018-01-21T23:24:01.915Z,81.90
2018-01-21T23:26:29.416Z,82.10
2018-01-21T23:28:56.956Z,82.60
2018-01-21T23:31:25.795Z,81.40
2018-01-21T23:33:53.274Z,81.50
2018-01-21T23:36:21.540Z,83.50
2018-01-21T23:38:50.104Z,83.80
2018-01-21T23:41:17.644Z,83.90
2018-01-21T23:43:45.134Z,84.80
2018-01-21T23:46:13.452Z,85.60
2018-01-21T23:48:40.988Z,85.70
2018-01-21T23:51:08.448Z,86.30
2018-01-21T23:53:35.994Z,86.40
2018-01-21T23:56:04.280Z,87.00
2018-01-21T23:58:31.824Z,87.10
